Oakwood, California
Current Conditions -  °F | °C
As of 10:47 AM on Sunday 23 Nov 2014 (Local Time) from KCQT Reporting Station
Clear Clear  
Wind Chill: 74°   Ceiling: Unl
Heat Index: 74°   Visibility: 10mi
Dew Point: 36°   Wind: 0mph
Humidity: 25%   Direction: NA
Pressure: 30.11"   Gusts: NA
Location:  34.0763°N, 118.311°W
Report Text: KCQT 231847Z AUTO 00000KT 10SM CLR 23/02 A3011 RMK AO2 SLP194 T02330022
Loading
Personal Weather Stations






























Interactive Weather Map New forecast layout! Learn more

10-Day Weather Forecast

Advertisements
Track Severe Weather on mobile